sensor_id;sensor_type;location;lat;lon;timestamp;temperature;humidity
16532;DHT22;66872;63.142;14.482;2024-02-28T00:02:11;15.70;28.30
16532;DHT22;66872;63.142;14.482;2024-02-28T00:04:37;15.70;28.30
16532;DHT22;66872;63.142;14.482;2024-02-28T00:07:03;15.70;28.30
16532;DHT22;66872;63.142;14.482;2024-02-28T00:09:28;15.70;28.30
16532;DHT22;66872;63.142;14.482;2024-02-28T00:11:54;15.70;28.30
16532;DHT22;66872;63.142;14.482;2024-02-28T00:14:20;15.70;28.40
16532;DHT22;66872;63.142;14.482;2024-02-28T00:16:46;15.70;28.40
16532;DHT22;66872;63.142;14.482;2024-02-28T00:19:13;15.70;28.40
16532;DHT22;66872;63.142;14.482;2024-02-28T00:21:42;15.70;28.40
16532;DHT22;66872;63.142;14.482;2024-02-28T00:24:08;15.70;28.30
16532;DHT22;66872;63.142;14.482;2024-02-28T00:26:34;15.70;28.30
16532;DHT22;66872;63.142;14.482;2024-02-28T00:29:00;15.70;28.30
16532;DHT22;66872;63.142;14.482;2024-02-28T00:31:25;15.70;28.30
16532;DHT22;66872;63.142;14.482;2024-02-28T00:33:51;15.80;28.30
16532;DHT22;66872;63.142;14.482;2024-02-28T00:36:17;15.70;28.30
16532;DHT22;66872;63.142;14.482;2024-02-28T00:38:43;15.80;28.30
16532;DHT22;66872;63.142;14.482;2024-02-28T00:41:09;15.80;28.30
16532;DHT22;66872;63.142;14.482;2024-02-28T00:43:35;15.70;28.20
16532;DHT22;66872;63.142;14.482;2024-02-28T00:46:00;15.70;28.40
16532;DHT22;66872;63.142;14.482;2024-02-28T00:48:26;15.70;28.40
16532;DHT22;66872;63.142;14.482;2024-02-28T00:50:52;15.70;28.40
16532;DHT22;66872;63.142;14.482;2024-02-28T00:53:19;15.60;28.30
16532;DHT22;66872;63.142;14.482;2024-02-28T00:55:45;15.70;28.40
16532;DHT22;66872;63.142;14.482;2024-02-28T00:58:11;15.60;28.40
16532;DHT22;66872;63.142;14.482;2024-02-28T01:00:36;15.60;28.40
16532;DHT22;66872;63.142;14.482;2024-02-28T01:03:02;15.70;28.50
16532;DHT22;66872;63.142;14.482;2024-02-28T01:05:34;15.70;28.50
16532;DHT22;66872;63.142;14.482;2024-02-28T01:08:00;15.70;28.50
16532;DHT22;66872;63.142;14.482;2024-02-28T01:10:26;15.70;28.50
16532;DHT22;66872;63.142;14.482;2024-02-28T01:12:51;15.70;28.50
16532;DHT22;66872;63.142;14.482;2024-02-28T01:15:17;15.70;28.50
16532;DHT22;66872;63.142;14.482;2024-02-28T01:17:43;15.70;28.50
16532;DHT22;66872;63.142;14.482;2024-02-28T01:20:09;15.70;28.50
16532;DHT22;66872;63.142;14.482;2024-02-28T01:22:35;15.70;28.50
16532;DHT22;66872;63.142;14.482;2024-02-28T01:25:02;15.70;28.40
16532;DHT22;66872;63.142;14.482;2024-02-28T01:27:28;15.70;28.50
16532;DHT22;66872;63.142;14.482;2024-02-28T01:29:54;15.70;28.50
16532;DHT22;66872;63.142;14.482;2024-02-28T01:32:20;15.70;28.50
16532;DHT22;66872;63.142;14.482;2024-02-28T01:34:46;15.70;28.40
16532;DHT22;66872;63.142;14.482;2024-02-28T01:37:12;15.70;28.40
16532;DHT22;66872;63.142;14.482;2024-02-28T01:39:38;15.70;28.40
16532;DHT22;66872;63.142;14.482;2024-02-28T01:42:03;15.70;28.40
16532;DHT22;66872;63.142;14.482;2024-02-28T01:44:29;15.70;28.40
16532;DHT22;66872;63.142;14.482;2024-02-28T01:46:56;15.70;28.40
16532;DHT22;66872;63.142;14.482;2024-02-28T01:49:23;15.70;28.50
16532;DHT22;66872;63.142;14.482;2024-02-28T01:51:50;15.70;28.40
16532;DHT22;66872;63.142;14.482;2024-02-28T01:54:18;15.70;28.40
16532;DHT22;66872;63.142;14.482;2024-02-28T01:56:44;15.70;28.40
16532;DHT22;66872;63.142;14.482;2024-02-28T01:59:10;15.70;28.50
16532;DHT22;66872;63.142;14.482;2024-02-28T02:01:37;15.70;28.50
16532;DHT22;66872;63.142;14.482;2024-02-28T02:04:03;15.70;28.50
16532;DHT22;66872;63.142;14.482;2024-02-28T02:06:30;15.70;28.40
16532;DHT22;66872;63.142;14.482;2024-02-28T02:08:56;15.70;28.50
16532;DHT22;66872;63.142;14.482;2024-02-28T02:11:23;15.70;28.50
16532;DHT22;66872;63.142;14.482;2024-02-28T02:13:50;15.70;28.40
16532;DHT22;66872;63.142;14.482;2024-02-28T02:16:16;15.70;28.40
16532;DHT22;66872;63.142;14.482;2024-02-28T02:18:41;15.70;28.40
16532;DHT22;66872;63.142;14.482;2024-02-28T02:21:09;15.70;28.40
16532;DHT22;66872;63.142;14.482;2024-02-28T02:23:37;15.80;28.40
16532;DHT22;66872;63.142;14.482;2024-02-28T02:26:06;15.80;28.40
16532;DHT22;66872;63.142;14.482;2024-02-28T02:28:32;15.70;28.30
16532;DHT22;66872;63.142;14.482;2024-02-28T02:30:58;15.80;28.30
16532;DHT22;66872;63.142;14.482;2024-02-28T02:33:23;15.80;28.30
16532;DHT22;66872;63.142;14.482;2024-02-28T02:35:49;15.70;28.20
16532;DHT22;66872;63.142;14.482;2024-02-28T02:38:15;15.70;28.20
16532;DHT22;66872;63.142;14.482;2024-02-28T02:40:41;15.70;28.30
16532;DHT22;66872;63.142;14.482;2024-02-28T02:43:06;15.80;28.30
16532;DHT22;66872;63.142;14.482;2024-02-28T02:45:32;15.80;28.30
16532;DHT22;66872;63.142;14.482;2024-02-28T02:47:57;15.80;28.30
16532;DHT22;66872;63.142;14.482;2024-02-28T02:50:23;15.80;28.30
16532;DHT22;66872;63.142;14.482;2024-02-28T02:52:49;15.70;28.20
16532;DHT22;66872;63.142;14.482;2024-02-28T02:55:14;15.70;28.20
16532;DHT22;66872;63.142;14.482;2024-02-28T02:57:40;15.70;28.30
16532;DHT22;66872;63.142;14.482;2024-02-28T03:00:10;15.70;28.20
16532;DHT22;66872;63.142;14.482;2024-02-28T03:02:36;15.70;28.20
16532;DHT22;66872;63.142;14.482;2024-02-28T03:05:05;15.70;28.20
16532;DHT22;66872;63.142;14.482;2024-02-28T03:07:31;15.80;28.30
16532;DHT22;66872;63.142;14.482;2024-02-28T03:09:58;15.70;28.20
16532;DHT22;66872;63.142;14.482;2024-02-28T03:12:23;15.80;28.30
16532;DHT22;66872;63.142;14.482;2024-02-28T03:14:49;15.80;28.30
16532;DHT22;66872;63.142;14.482;2024-02-28T03:17:15;15.70;28.30
16532;DHT22;66872;63.142;14.482;2024-02-28T03:19:41;15.80;28.30
16532;DHT22;66872;63.142;14.482;2024-02-28T03:22:07;15.70;28.20
16532;DHT22;66872;63.142;14.482;2024-02-28T03:24:33;15.80;28.30
16532;DHT22;66872;63.142;14.482;2024-02-28T03:27:03;15.80;28.30
16532;DHT22;66872;63.142;14.482;2024-02-28T03:29:30;15.70;28.20
16532;DHT22;66872;63.142;14.482;2024-02-28T03:31:56;15.80;28.30
16532;DHT22;66872;63.142;14.482;2024-02-28T03:34:22;15.80;28.30
16532;DHT22;66872;63.142;14.482;2024-02-28T03:36:47;15.80;28.30
16532;DHT22;66872;63.142;14.482;2024-02-28T03:39:13;15.80;28.30
16532;DHT22;66872;63.142;14.482;2024-02-28T03:41:39;15.80;28.30
16532;DHT22;66872;63.142;14.482;2024-02-28T03:44:05;15.80;28.30
16532;DHT22;66872;63.142;14.482;2024-02-28T03:46:31;15.80;28.20
16532;DHT22;66872;63.142;14.482;2024-02-28T03:48:56;15.80;28.30
16532;DHT22;66872;63.142;14.482;2024-02-28T03:51:22;15.70;28.20
16532;DHT22;66872;63.142;14.482;2024-02-28T03:53:48;15.70;28.20
16532;DHT22;66872;63.142;14.482;2024-02-28T03:56:24;15.80;28.30
16532;DHT22;66872;63.142;14.482;2024-02-28T03:58:50;15.70;28.30
16532;DHT22;66872;63.142;14.482;2024-02-28T04:01:16;15.70;28.40
16532;DHT22;66872;63.142;14.482;2024-02-28T04:03:42;15.70;28.40
16532;DHT22;66872;63.142;14.482;2024-02-28T04:06:08;15.70;28.40
16532;DHT22;66872;63.142;14.482;2024-02-28T04:08:33;15.70;28.40
16532;DHT22;66872;63.142;14.482;2024-02-28T04:10:59;15.70;28.40
16532;DHT22;66872;63.142;14.482;2024-02-28T04:13:25;15.70;28.40
16532;DHT22;66872;63.142;14.482;2024-02-28T04:15:51;15.70;28.40
16532;DHT22;66872;63.142;14.482;2024-02-28T04:18:17;15.70;28.40
16532;DHT22;66872;63.142;14.482;2024-02-28T04:20:43;15.70;28.40
16532;DHT22;66872;63.142;14.482;2024-02-28T04:23:09;15.70;28.40
16532;DHT22;66872;63.142;14.482;2024-02-28T04:25:34;15.70;28.40
16532;DHT22;66872;63.142;14.482;2024-02-28T04:28:01;15.70;28.40
16532;DHT22;66872;63.142;14.482;2024-02-28T04:30:27;15.70;28.40
16532;DHT22;66872;63.142;14.482;2024-02-28T04:32:53;15.70;28.40
16532;DHT22;66872;63.142;14.482;2024-02-28T04:35:19;15.70;28.30
16532;DHT22;66872;63.142;14.482;2024-02-28T04:37:45;15.80;28.40
16532;DHT22;66872;63.142;14.482;2024-02-28T04:40:11;15.80;28.40
16532;DHT22;66872;63.142;14.482;2024-02-28T04:42:37;15.70;28.30
16532;DHT22;66872;63.142;14.482;2024-02-28T04:45:04;15.80;28.40
16532;DHT22;66872;63.142;14.482;2024-02-28T04:47:30;15.80;28.40
16532;DHT22;66872;63.142;14.482;2024-02-28T04:49:56;15.80;28.40
16532;DHT22;66872;63.142;14.482;2024-02-28T04:52:22;15.80;28.40
16532;DHT22;66872;63.142;14.482;2024-02-28T04:54:47;15.80;28.40
16532;DHT22;66872;63.142;14.482;2024-02-28T04:57:13;15.80;28.40
16532;DHT22;66872;63.142;14.482;2024-02-28T04:59:40;15.70;28.30
16532;DHT22;66872;63.142;14.482;2024-02-28T05:02:06;15.70;28.40
16532;DHT22;66872;63.142;14.482;2024-02-28T05:04:32;15.70;28.40
16532;DHT22;66872;63.142;14.482;2024-02-28T05:06:58;15.80;28.40
16532;DHT22;66872;63.142;14.482;2024-02-28T05:09:23;15.70;28.40
16532;DHT22;66872;63.142;14.482;2024-02-28T05:11:49;15.80;28.50
16532;DHT22;66872;63.142;14.482;2024-02-28T05:14:14;15.70;28.50
16532;DHT22;66872;63.142;14.482;2024-02-28T05:16:40;15.80;28.50
16532;DHT22;66872;63.142;14.482;2024-02-28T05:19:06;15.70;28.90
16532;DHT22;66872;63.142;14.482;2024-02-28T05:21:32;15.70;28.50
16532;DHT22;66872;63.142;14.482;2024-02-28T05:23:58;15.80;28.50
16532;DHT22;66872;63.142;14.482;2024-02-28T05:26:23;15.70;28.40
16532;DHT22;66872;63.142;14.482;2024-02-28T05:28:50;15.80;28.50
16532;DHT22;66872;63.142;14.482;2024-02-28T05:31:23;15.70;28.40
16532;DHT22;66872;63.142;14.482;2024-02-28T05:33:57;15.80;28.50
16532;DHT22;66872;63.142;14.482;2024-02-28T05:36:23;15.70;28.50
16532;DHT22;66872;63.142;14.482;2024-02-28T05:38:49;15.80;28.50
16532;DHT22;66872;63.142;14.482;2024-02-28T05:41:18;15.80;28.50
16532;DHT22;66872;63.142;14.482;2024-02-28T05:43:44;15.70;28.40
16532;DHT22;66872;63.142;14.482;2024-02-28T05:46:11;15.70;28.40
16532;DHT22;66872;63.142;14.482;2024-02-28T05:48:37;15.70;28.50
16532;DHT22;66872;63.142;14.482;2024-02-28T05:51:04;15.70;28.50
16532;DHT22;66872;63.142;14.482;2024-02-28T05:53:30;15.70;28.50
16532;DHT22;66872;63.142;14.482;2024-02-28T05:56:05;15.70;28.50
16532;DHT22;66872;63.142;14.482;2024-02-28T05:58:31;15.70;28.50
16532;DHT22;66872;63.142;14.482;2024-02-28T06:00:59;15.70;28.50
16532;DHT22;66872;63.142;14.482;2024-02-28T06:03:25;15.70;28.40
16532;DHT22;66872;63.142;14.482;2024-02-28T06:05:50;15.70;28.40
16532;DHT22;66872;63.142;14.482;2024-02-28T06:08:17;15.70;28.40
16532;DHT22;66872;63.142;14.482;2024-02-28T06:10:43;15.80;28.50
16532;DHT22;66872;63.142;14.482;2024-02-28T06:13:11;15.70;28.40
16532;DHT22;66872;63.142;14.482;2024-02-28T06:15:37;15.80;28.50
16532;DHT22;66872;63.142;14.482;2024-02-28T06:18:02;15.80;28.50
16532;DHT22;66872;63.142;14.482;2024-02-28T06:20:28;15.70;28.40
16532;DHT22;66872;63.142;14.482;2024-02-28T06:22:54;15.80;28.50
16532;DHT22;66872;63.142;14.482;2024-02-28T06:25:19;15.70;28.40
16532;DHT22;66872;63.142;14.482;2024-02-28T06:27:48;15.80;28.50
16532;DHT22;66872;63.142;14.482;2024-02-28T06:30:14;15.70;28.50
16532;DHT22;66872;63.142;14.482;2024-02-28T06:32:40;15.70;28.50
16532;DHT22;66872;63.142;14.482;2024-02-28T06:35:06;15.80;28.60
16532;DHT22;66872;63.142;14.482;2024-02-28T06:37:33;15.70;28.50
16532;DHT22;66872;63.142;14.482;2024-02-28T06:39:59;15.70;28.50
16532;DHT22;66872;63.142;14.482;2024-02-28T06:42:24;15.70;28.50
16532;DHT22;66872;63.142;14.482;2024-02-28T06:44:50;15.70;28.50
16532;DHT22;66872;63.142;14.482;2024-02-28T06:47:16;15.70;28.50
16532;DHT22;66872;63.142;14.482;2024-02-28T06:49:42;15.70;28.60
16532;DHT22;66872;63.142;14.482;2024-02-28T06:52:07;15.70;28.50
16532;DHT22;66872;63.142;14.482;2024-02-28T06:54:33;15.70;28.60
16532;DHT22;66872;63.142;14.482;2024-02-28T06:56:59;15.70;28.60
16532;DHT22;66872;63.142;14.482;2024-02-28T06:59:24;15.70;28.70
16532;DHT22;66872;63.142;14.482;2024-02-28T07:01:50;15.70;28.70
16532;DHT22;66872;63.142;14.482;2024-02-28T07:04:16;15.70;28.60
16532;DHT22;66872;63.142;14.482;2024-02-28T07:06:42;15.70;28.60
16532;DHT22;66872;63.142;14.482;2024-02-28T07:09:08;15.70;28.60
16532;DHT22;66872;63.142;14.482;2024-02-28T07:11:34;15.70;28.60
16532;DHT22;66872;63.142;14.482;2024-02-28T07:14:00;15.70;28.70
16532;DHT22;66872;63.142;14.482;2024-02-28T07:16:32;15.70;28.70
16532;DHT22;66872;63.142;14.482;2024-02-28T07:19:02;15.70;28.60
16532;DHT22;66872;63.142;14.482;2024-02-28T07:21:28;15.70;28.60
16532;DHT22;66872;63.142;14.482;2024-02-28T07:23:56;15.80;28.70
16532;DHT22;66872;63.142;14.482;2024-02-28T07:26:21;15.80;28.70
16532;DHT22;66872;63.142;14.482;2024-02-28T07:28:47;15.80;28.60
16532;DHT22;66872;63.142;14.482;2024-02-28T07:31:18;15.70;28.60
16532;DHT22;66872;63.142;14.482;2024-02-28T07:33:44;15.70;28.60
16532;DHT22;66872;63.142;14.482;2024-02-28T07:36:10;15.70;28.60
16532;DHT22;66872;63.142;14.482;2024-02-28T07:38:36;15.80;28.70
16532;DHT22;66872;63.142;14.482;2024-02-28T07:41:02;15.80;28.70
16532;DHT22;66872;63.142;14.482;2024-02-28T07:43:28;15.70;28.60
16532;DHT22;66872;63.142;14.482;2024-02-28T07:45:54;15.80;28.60
16532;DHT22;66872;63.142;14.482;2024-02-28T07:48:20;15.70;28.60
16532;DHT22;66872;63.142;14.482;2024-02-28T07:50:45;15.80;28.60
16532;DHT22;66872;63.142;14.482;2024-02-28T07:53:15;15.80;28.60
16532;DHT22;66872;63.142;14.482;2024-02-28T07:55:41;15.80;28.60
16532;DHT22;66872;63.142;14.482;2024-02-28T07:58:07;15.80;28.60
16532;DHT22;66872;63.142;14.482;2024-02-28T08:00:33;15.80;28.60
16532;DHT22;66872;63.142;14.482;2024-02-28T08:02:59;15.80;28.60
16532;DHT22;66872;63.142;14.482;2024-02-28T08:05:24;15.80;28.60
16532;DHT22;66872;63.142;14.482;2024-02-28T08:07:50;15.80;28.60
16532;DHT22;66872;63.142;14.482;2024-02-28T08:10:16;15.80;28.50
16532;DHT22;66872;63.142;14.482;2024-02-28T08:12:41;15.80;28.50
16532;DHT22;66872;63.142;14.482;2024-02-28T08:15:07;15.80;28.50
16532;DHT22;66872;63.142;14.482;2024-02-28T08:17:33;15.80;28.50
16532;DHT22;66872;63.142;14.482;2024-02-28T08:19:59;15.80;28.50
16532;DHT22;66872;63.142;14.482;2024-02-28T08:22:25;15.80;28.50
16532;DHT22;66872;63.142;14.482;2024-02-28T08:24:52;15.80;28.60
16532;DHT22;66872;63.142;14.482;2024-02-28T08:27:17;15.80;28.50
16532;DHT22;66872;63.142;14.482;2024-02-28T08:29:43;15.80;28.50
16532;DHT22;66872;63.142;14.482;2024-02-28T08:32:11;15.80;28.50
16532;DHT22;66872;63.142;14.482;2024-02-28T08:34:37;15.80;28.40
16532;DHT22;66872;63.142;14.482;2024-02-28T08:37:03;15.80;28.40
16532;DHT22;66872;63.142;14.482;2024-02-28T08:39:28;15.90;28.50
16532;DHT22;66872;63.142;14.482;2024-02-28T08:41:54;15.90;28.50
16532;DHT22;66872;63.142;14.482;2024-02-28T08:44:20;15.80;28.40
16532;DHT22;66872;63.142;14.482;2024-02-28T08:46:48;15.80;28.40
16532;DHT22;66872;63.142;14.482;2024-02-28T08:49:14;15.90;28.50
16532;DHT22;66872;63.142;14.482;2024-02-28T08:51:40;15.90;28.50
16532;DHT22;66872;63.142;14.482;2024-02-28T08:54:06;15.90;28.40
16532;DHT22;66872;63.142;14.482;2024-02-28T08:56:32;15.90;28.40
16532;DHT22;66872;63.142;14.482;2024-02-28T08:58:58;15.90;28.40
16532;DHT22;66872;63.142;14.482;2024-02-28T09:01:24;16.00;28.40
16532;DHT22;66872;63.142;14.482;2024-02-28T09:03:50;16.00;28.40
16532;DHT22;66872;63.142;14.482;2024-02-28T09:06:16;16.00;28.30
16532;DHT22;66872;63.142;14.482;2024-02-28T09:08:42;16.00;28.30
16532;DHT22;66872;63.142;14.482;2024-02-28T09:11:08;16.00;28.30
16532;DHT22;66872;63.142;14.482;2024-02-28T09:13:33;16.00;28.30
16532;DHT22;66872;63.142;14.482;2024-02-28T09:16:01;16.00;28.20
16532;DHT22;66872;63.142;14.482;2024-02-28T09:18:27;16.00;28.20
16532;DHT22;66872;63.142;14.482;2024-02-28T09:20:53;16.10;28.20
16532;DHT22;66872;63.142;14.482;2024-02-28T09:23:19;16.10;28.20
16532;DHT22;66872;63.142;14.482;2024-02-28T09:25:44;16.10;28.20
16532;DHT22;66872;63.142;14.482;2024-02-28T09:28:10;16.10;28.20
16532;DHT22;66872;63.142;14.482;2024-02-28T09:30:39;16.10;28.20
16532;DHT22;66872;63.142;14.482;2024-02-28T09:33:04;16.10;28.20
16532;DHT22;66872;63.142;14.482;2024-02-28T09:35:30;16.10;28.20
16532;DHT22;66872;63.142;14.482;2024-02-28T09:37:56;16.10;28.20
16532;DHT22;66872;63.142;14.482;2024-02-28T09:40:22;16.10;28.10
16532;DHT22;66872;63.142;14.482;2024-02-28T09:42:52;16.10;28.10
16532;DHT22;66872;63.142;14.482;2024-02-28T09:45:21;16.10;28.20
16532;DHT22;66872;63.142;14.482;2024-02-28T09:47:47;16.10;28.20
16532;DHT22;66872;63.142;14.482;2024-02-28T09:50:13;16.10;28.20
16532;DHT22;66872;63.142;14.482;2024-02-28T09:52:40;16.10;28.20
16532;DHT22;66872;63.142;14.482;2024-02-28T09:55:05;16.10;28.20
16532;DHT22;66872;63.142;14.482;2024-02-28T09:57:32;16.10;28.20
16532;DHT22;66872;63.142;14.482;2024-02-28T10:00:00;16.10;28.20
16532;DHT22;66872;63.142;14.482;2024-02-28T10:02:26;16.10;28.10
16532;DHT22;66872;63.142;14.482;2024-02-28T10:04:54;16.10;28.10
16532;DHT22;66872;63.142;14.482;2024-02-28T10:07:21;16.10;28.10
16532;DHT22;66872;63.142;14.482;2024-02-28T10:09:47;16.10;28.10
16532;DHT22;66872;63.142;14.482;2024-02-28T10:12:13;16.10;28.10
16532;DHT22;66872;63.142;14.482;2024-02-28T10:14:39;16.10;28.10
16532;DHT22;66872;63.142;14.482;2024-02-28T10:17:05;16.10;28.10
16532;DHT22;66872;63.142;14.482;2024-02-28T10:19:31;16.10;28.10
16532;DHT22;66872;63.142;14.482;2024-02-28T10:21:57;16.10;28.10
16532;DHT22;66872;63.142;14.482;2024-02-28T10:24:25;16.10;28.10
16532;DHT22;66872;63.142;14.482;2024-02-28T10:26:51;16.10;28.10
16532;DHT22;66872;63.142;14.482;2024-02-28T10:29:23;16.10;28.20
16532;DHT22;66872;63.142;14.482;2024-02-28T10:31:50;16.00;28.10
16532;DHT22;66872;63.142;14.482;2024-02-28T10:34:17;16.10;28.20
16532;DHT22;66872;63.142;14.482;2024-02-28T10:36:44;16.10;28.20
16532;DHT22;66872;63.142;14.482;2024-02-28T10:39:11;16.00;28.10
16532;DHT22;66872;63.142;14.482;2024-02-28T10:41:40;16.00;28.20
16532;DHT22;66872;63.142;14.482;2024-02-28T10:44:06;16.00;28.20
16532;DHT22;66872;63.142;14.482;2024-02-28T10:46:31;16.00;28.20
16532;DHT22;66872;63.142;14.482;2024-02-28T10:48:57;16.00;28.20
16532;DHT22;66872;63.142;14.482;2024-02-28T10:51:24;16.00;28.20
16532;DHT22;66872;63.142;14.482;2024-02-28T10:54:11;16.00;28.20
16532;DHT22;66872;63.142;14.482;2024-02-28T10:56:41;16.00;28.20
16532;DHT22;66872;63.142;14.482;2024-02-28T10:59:09;16.00;28.20
16532;DHT22;66872;63.142;14.482;2024-02-28T11:01:42;16.00;28.10
16532;DHT22;66872;63.142;14.482;2024-02-28T11:04:10;16.00;28.10
16532;DHT22;66872;63.142;14.482;2024-02-28T11:06:50;16.00;28.10
16532;DHT22;66872;63.142;14.482;2024-02-28T11:09:28;16.00;28.10
16532;DHT22;66872;63.142;14.482;2024-02-28T11:11:56;16.00;28.10
16532;DHT22;66872;63.142;14.482;2024-02-28T11:14:22;16.00;28.10
16532;DHT22;66872;63.142;14.482;2024-02-28T11:17:04;16.00;28.10
16532;DHT22;66872;63.142;14.482;2024-02-28T11:19:31;16.00;28.10
16532;DHT22;66872;63.142;14.482;2024-02-28T11:21:59;16.00;28.10
16532;DHT22;66872;63.142;14.482;2024-02-28T11:24:35;16.00;28.10
16532;DHT22;66872;63.142;14.482;2024-02-28T11:27:02;16.00;28.10
16532;DHT22;66872;63.142;14.482;2024-02-28T11:29:28;16.00;28.10
16532;DHT22;66872;63.142;14.482;2024-02-28T11:31:55;16.00;28.10
16532;DHT22;66872;63.142;14.482;2024-02-28T11:34:21;16.00;28.10
16532;DHT22;66872;63.142;14.482;2024-02-28T11:36:48;16.00;28.10
16532;DHT22;66872;63.142;14.482;2024-02-28T11:39:15;16.00;28.10
16532;DHT22;66872;63.142;14.482;2024-02-28T11:41:41;16.00;28.10
16532;DHT22;66872;63.142;14.482;2024-02-28T11:44:07;16.00;28.10
16532;DHT22;66872;63.142;14.482;2024-02-28T11:46:32;16.00;28.10
16532;DHT22;66872;63.142;14.482;2024-02-28T11:48:58;16.00;28.10
16532;DHT22;66872;63.142;14.482;2024-02-28T11:51:26;16.00;28.10
16532;DHT22;66872;63.142;14.482;2024-02-28T11:53:51;16.00;28.10
16532;DHT22;66872;63.142;14.482;2024-02-28T11:56:17;16.00;28.10
16532;DHT22;66872;63.142;14.482;2024-02-28T11:58:50;16.00;28.10
16532;DHT22;66872;63.142;14.482;2024-02-28T12:01:16;16.00;28.10
16532;DHT22;66872;63.142;14.482;2024-02-28T12:03:45;16.00;28.10
16532;DHT22;66872;63.142;14.482;2024-02-28T12:06:11;16.00;28.10
16532;DHT22;66872;63.142;14.482;2024-02-28T12:08:37;16.00;28.10
16532;DHT22;66872;63.142;14.482;2024-02-28T12:11:06;16.00;28.10
16532;DHT22;66872;63.142;14.482;2024-02-28T12:13:33;16.00;28.10
16532;DHT22;66872;63.142;14.482;2024-02-28T12:15:58;16.00;28.20
16532;DHT22;66872;63.142;14.482;2024-02-28T12:18:26;16.00;28.20
16532;DHT22;66872;63.142;14.482;2024-02-28T12:20:53;16.00;28.20
16532;DHT22;66872;63.142;14.482;2024-02-28T12:23:18;16.00;28.20
16532;DHT22;66872;63.142;14.482;2024-02-28T12:25:44;16.00;28.20
16532;DHT22;66872;63.142;14.482;2024-02-28T12:28:10;16.00;28.20
16532;DHT22;66872;63.142;14.482;2024-02-28T12:30:41;16.00;28.20
16532;DHT22;66872;63.142;14.482;2024-02-28T12:33:08;16.00;28.20
16532;DHT22;66872;63.142;14.482;2024-02-28T12:35:34;16.00;28.20
16532;DHT22;66872;63.142;14.482;2024-02-28T12:37:59;16.00;28.20
16532;DHT22;66872;63.142;14.482;2024-02-28T12:40:25;16.00;28.30
16532;DHT22;66872;63.142;14.482;2024-02-28T12:42:51;16.00;28.30
16532;DHT22;66872;63.142;14.482;2024-02-28T12:45:16;16.00;28.30
16532;DHT22;66872;63.142;14.482;2024-02-28T12:47:42;16.00;28.40
16532;DHT22;66872;63.142;14.482;2024-02-28T12:50:08;16.00;28.40
16532;DHT22;66872;63.142;14.482;2024-02-28T12:52:35;16.00;28.40
16532;DHT22;66872;63.142;14.482;2024-02-28T12:55:01;16.00;28.40
16532;DHT22;66872;63.142;14.482;2024-02-28T12:57:27;16.00;28.40
16532;DHT22;66872;63.142;14.482;2024-02-28T12:59:54;16.00;28.40
16532;DHT22;66872;63.142;14.482;2024-02-28T13:02:19;16.00;28.40
16532;DHT22;66872;63.142;14.482;2024-02-28T13:04:45;16.00;28.40
16532;DHT22;66872;63.142;14.482;2024-02-28T13:07:11;16.00;28.40
16532;DHT22;66872;63.142;14.482;2024-02-28T13:09:37;16.00;28.40
16532;DHT22;66872;63.142;14.482;2024-02-28T13:12:03;16.00;28.40
16532;DHT22;66872;63.142;14.482;2024-02-28T13:14:30;16.00;28.40
16532;DHT22;66872;63.142;14.482;2024-02-28T13:16:56;16.00;28.40
16532;DHT22;66872;63.142;14.482;2024-02-28T13:19:21;16.00;28.40
16532;DHT22;66872;63.142;14.482;2024-02-28T13:21:47;16.00;28.40
16532;DHT22;66872;63.142;14.482;2024-02-28T13:24:13;16.00;28.40
16532;DHT22;66872;63.142;14.482;2024-02-28T13:26:40;16.00;28.40
16532;DHT22;66872;63.142;14.482;2024-02-28T13:29:06;16.00;28.40
16532;DHT22;66872;63.142;14.482;2024-02-28T13:31:33;16.00;28.40
16532;DHT22;66872;63.142;14.482;2024-02-28T13:33:59;16.00;28.40
16532;DHT22;66872;63.142;14.482;2024-02-28T13:36:26;16.00;28.40
16532;DHT22;66872;63.142;14.482;2024-02-28T13:38:51;16.00;28.50
16532;DHT22;66872;63.142;14.482;2024-02-28T13:41:17;16.00;28.40
16532;DHT22;66872;63.142;14.482;2024-02-28T13:43:43;16.00;28.50
16532;DHT22;66872;63.142;14.482;2024-02-28T13:46:08;16.00;28.50
16532;DHT22;66872;63.142;14.482;2024-02-28T13:48:35;16.00;28.50
16532;DHT22;66872;63.142;14.482;2024-02-28T13:51:01;16.00;28.50
16532;DHT22;66872;63.142;14.482;2024-02-28T13:53:29;16.00;28.50
16532;DHT22;66872;63.142;14.482;2024-02-28T13:55:55;16.00;28.50
16532;DHT22;66872;63.142;14.482;2024-02-28T13:58:21;16.00;28.50
16532;DHT22;66872;63.142;14.482;2024-02-28T14:00:47;16.00;28.50
16532;DHT22;66872;63.142;14.482;2024-02-28T14:03:13;16.00;28.50
16532;DHT22;66872;63.142;14.482;2024-02-28T14:05:39;16.00;28.50
16532;DHT22;66872;63.142;14.482;2024-02-28T14:08:05;16.00;28.50
16532;DHT22;66872;63.142;14.482;2024-02-28T14:10:34;16.00;28.50
16532;DHT22;66872;63.142;14.482;2024-02-28T14:13:00;16.00;28.50
16532;DHT22;66872;63.142;14.482;2024-02-28T14:15:26;16.00;28.50
16532;DHT22;66872;63.142;14.482;2024-02-28T14:17:52;16.00;28.60
16532;DHT22;66872;63.142;14.482;2024-02-28T14:20:18;16.00;28.50
16532;DHT22;66872;63.142;14.482;2024-02-28T14:22:44;16.00;28.50
16532;DHT22;66872;63.142;14.482;2024-02-28T14:25:14;16.00;28.50
16532;DHT22;66872;63.142;14.482;2024-02-28T14:27:43;16.00;28.50
16532;DHT22;66872;63.142;14.482;2024-02-28T14:30:10;16.00;28.50
16532;DHT22;66872;63.142;14.482;2024-02-28T14:32:36;16.00;28.60
16532;DHT22;66872;63.142;14.482;2024-02-28T14:35:06;16.00;28.60
16532;DHT22;66872;63.142;14.482;2024-02-28T14:37:35;16.00;28.60
16532;DHT22;66872;63.142;14.482;2024-02-28T14:40:05;16.00;28.60
16532;DHT22;66872;63.142;14.482;2024-02-28T14:42:36;16.00;28.60
16532;DHT22;66872;63.142;14.482;2024-02-28T14:45:02;16.00;28.60
16532;DHT22;66872;63.142;14.482;2024-02-28T14:47:27;16.00;28.60
16532;DHT22;66872;63.142;14.482;2024-02-28T14:49:53;16.00;28.60
16532;DHT22;66872;63.142;14.482;2024-02-28T14:52:19;16.00;28.60
16532;DHT22;66872;63.142;14.482;2024-02-28T14:54:44;16.00;28.60
16532;DHT22;66872;63.142;14.482;2024-02-28T14:57:11;16.00;28.60
16532;DHT22;66872;63.142;14.482;2024-02-28T14:59:37;16.00;28.60
16532;DHT22;66872;63.142;14.482;2024-02-28T15:02:03;16.00;28.60
16532;DHT22;66872;63.142;14.482;2024-02-28T15:04:29;16.00;28.60
16532;DHT22;66872;63.142;14.482;2024-02-28T15:06:55;16.00;28.60
16532;DHT22;66872;63.142;14.482;2024-02-28T15:09:20;16.00;28.60
16532;DHT22;66872;63.142;14.482;2024-02-28T15:11:50;16.00;28.60